Time;durP1;ratioP1;P1;durP2;ratioP2;P2;SDS_P1;SDS_P2;PMS_P1;PMS_P2;Temp;Humidity;BMP_temperature;BMP_pressure;BME280_temperature;BME280_humidity;BME280_pressure;Samples;Min_cycle;Max_cycle;Signal;HPM_P1;HPM_P2
2022/11/03 00:01:12;;;;;;;15.50;3.80;;;10.60;1.00;;;;;;5065593;28;20514;-75
2022/11/03 00:03:38;;;;;;;10.30;3.10;;;10.60;1.00;;;;;;5071432;28;20351;-74
2022/11/03 00:06:04;;;;;;;11.50;3.47;;;10.60;1.00;;;;;;5063628;28;20323;-74
2022/11/03 00:08:35;;;;;;;9.83;3.57;;;10.60;1.00;;;;;;5066891;28;20165;-74
2022/11/03 00:11:10;;;;;;;10.40;3.30;;;10.60;1.00;;;;;;5065663;28;20188;-74
2022/11/03 00:13:37;;;;;;;11.90;3.43;;;10.50;1.00;;;;;;5078426;28;20425;-73
2022/11/03 00:16:03;;;;;;;8.40;3.40;;;10.40;1.00;;;;;;5063372;28;20418;-74
2022/11/03 00:18:29;;;;;;;7.70;3.10;;;10.30;1.00;;;;;;5068456;28;20489;-74
2022/11/03 00:21:06;;;;;;;10.90;2.93;;;10.30;1.00;;;;;;5053870;28;20415;-73
2022/11/03 00:23:34;;;;;;;10.23;3.47;;;10.20;1.00;;;;;;5067005;28;20203;-74
2022/11/03 00:26:12;;;;;;;9.50;3.83;;;10.20;1.00;;;;;;5069076;28;20945;-75
2022/11/03 00:28:38;;;;;;;7.73;3.03;;;10.30;1.00;;;;;;5068043;28;20426;-75
2022/11/03 00:31:18;;;;;;;9.50;3.50;;;10.30;1.00;;;;;;5069994;28;20429;-75
2022/11/03 00:33:44;;;;;;;11.40;3.00;;;10.30;1.00;;;;;;5067761;28;20458;-75
2022/11/03 00:36:13;;;;;;;13.70;3.30;;;10.30;1.00;;;;;;5066259;28;20458;-75
2022/11/03 00:38:39;;;;;;;11.93;3.00;;;10.40;1.00;;;;;;5068519;28;20200;-75
2022/11/03 00:41:05;;;;;;;14.50;4.43;;;10.40;1.00;;;;;;5068334;28;20425;-75
2022/11/03 00:43:33;;;;;;;10.10;3.70;;;10.40;1.00;;;;;;5064921;28;20319;-75
2022/11/03 00:45:59;;;;;;;13.33;3.93;;;10.50;1.00;;;;;;5068461;28;20399;-75
2022/11/03 00:48:28;;;;;;;11.83;3.67;;;10.50;1.00;;;;;;5065733;28;20442;-75
2022/11/03 00:50:54;;;;;;;8.80;3.60;;;10.90;1.00;;;;;;5069198;28;20453;-73
2022/11/03 00:53:19;;;;;;;6.77;3.27;;;10.50;1.00;;;;;;5058330;28;20557;-75
2022/11/03 00:55:49;;;;;;;9.13;3.20;;;10.50;1.00;;;;;;5068196;28;20502;-74
2022/11/03 00:58:14;;;;;;;16.10;3.30;;;10.40;1.00;;;;;;5069079;28;20540;-75
2022/11/03 01:00:40;;;;;;;8.80;3.23;;;10.40;1.00;;;;;;5069765;28;20532;-75
2022/11/03 01:03:05;;;;;;;9.70;3.70;;;10.40;1.00;;;;;;5064575;28;20408;-75
2022/11/03 01:08:15;;;;;;;10.50;3.97;;;10.30;1.00;;;;;;5064696;28;20187;-74
2022/11/03 01:11:42;;;;;;;7.00;3.77;;;10.30;1.00;;;;;;5069482;28;20418;-75
2022/11/03 01:13:26;;;;;;;12.73;3.27;;;10.30;1.00;;;;;;5059605;28;20368;-74
2022/11/03 01:15:56;;;;;;;10.17;3.73;;;10.20;1.00;;;;;;5068393;28;20415;-75
2022/11/03 01:18:21;;;;;;;7.40;3.27;;;10.30;1.00;;;;;;5070816;28;20670;-75
2022/11/03 01:20:53;;;;;;;12.67;3.13;;;10.30;1.00;;;;;;5055737;28;20435;-74
2022/11/03 01:23:19;;;;;;;13.13;3.83;;;10.20;1.00;;;;;;5065921;28;20200;-74
2022/11/03 01:25:44;;;;;;;9.43;3.23;;;10.20;1.00;;;;;;5060007;28;20440;-75
2022/11/03 01:28:10;;;;;;;7.97;3.73;;;10.10;1.00;;;;;;5069077;28;20181;-75
2022/11/03 01:30:35;;;;;;;10.03;3.50;;;10.10;1.00;;;;;;5066571;28;20172;-75
2022/11/03 01:33:01;;;;;;;10.33;3.40;;;10.10;1.00;;;;;;5069356;28;20203;-75
2022/11/03 01:35:26;;;;;;;11.77;3.60;;;10.00;1.00;;;;;;5061640;28;20496;-75
2022/11/03 01:37:55;;;;;;;9.17;3.47;;;9.90;1.00;;;;;;5061706;28;20697;-75
2022/11/03 01:40:21;;;;;;;11.60;3.67;;;9.90;1.00;;;;;;5064199;28;20258;-75
2022/11/03 01:42:46;;;;;;;8.80;3.37;;;9.90;1.00;;;;;;5067141;28;20458;-75
2022/11/03 01:45:12;;;;;;;13.97;3.87;;;9.90;1.00;;;;;;5065669;28;20256;-74
2022/11/03 01:47:39;;;;;;;15.20;4.40;;;9.80;1.00;;;;;;5069283;28;20170;-75
2022/11/03 01:50:09;;;;;;;9.37;3.30;;;9.80;1.00;;;;;;5066193;28;20255;-75
2022/11/03 01:52:46;;;;;;;7.17;3.47;;;9.80;1.00;;;;;;5065393;28;20451;-75
2022/11/03 01:55:26;;;;;;;10.33;3.80;;;9.80;1.00;;;;;;5065416;28;20422;-75
2022/11/03 01:58:02;;;;;;;12.63;3.90;;;9.80;1.00;;;;;;5066894;28;20473;-74
2022/11/03 02:00:28;;;;;;;13.53;3.50;;;9.80;1.00;;;;;;5066397;28;20512;-75
2022/11/03 02:02:54;;;;;;;10.60;3.93;;;9.80;1.00;;;;;;5060665;28;20488;-75
2022/11/03 02:05:22;;;;;;;9.37;4.03;;;9.80;1.00;;;;;;5065534;28;20180;-75
2022/11/03 02:07:53;;;;;;;9.13;3.43;;;9.80;1.00;;;;;;5061677;28;20210;-75
2022/11/03 02:10:19;;;;;;;11.20;3.57;;;9.80;1.00;;;;;;5066829;28;20431;-75
2022/11/03 02:12:46;;;;;;;9.20;3.30;;;9.80;1.00;;;;;;5075029;28;20461;-75
2022/11/03 02:15:14;;;;;;;6.80;3.90;;;9.80;1.00;;;;;;5060032;28;20524;-75
2022/11/03 02:17:42;;;;;;;6.07;3.33;;;9.80;1.00;;;;;;5065035;28;20814;-75
2022/11/03 02:20:09;;;;;;;15.47;3.80;;;9.70;1.00;;;;;;5068759;28;20423;-75
2022/11/03 02:23:07;;;;;;;14.83;3.73;;;9.70;1.00;;;;;;5057060;28;20466;-74
2022/11/03 02:25:48;;;;;;;7.17;3.30;;;9.60;1.00;;;;;;5068992;28;20399;-75
2022/11/03 02:28:20;;;;;;;8.03;3.90;;;9.70;1.00;;;;;;5064881;28;20434;-75
2022/11/03 02:30:52;;;;;;;6.03;3.50;;;9.60;1.00;;;;;;5068960;28;20411;-75
2022/11/03 02:33:29;;;;;;;16.37;4.40;;;9.50;1.00;;;;;;5065741;28;20459;-74
2022/11/03 02:36:10;;;;;;;8.00;3.37;;;9.40;1.00;;;;;;5065991;28;21068;-74
2022/11/03 02:38:41;;;;;;;11.63;3.60;;;9.40;1.00;;;;;;5062890;28;20488;-75
2022/11/03 02:41:08;;;;;;;17.73;4.73;;;9.30;1.00;;;;;;5062564;28;20434;-75
2022/11/03 02:43:34;;;;;;;11.90;3.50;;;9.30;1.00;;;;;;5060089;28;20475;-74
2022/11/03 02:46:02;;;;;;;7.90;3.90;;;9.30;1.00;;;;;;5060741;28;20564;-74
2022/11/03 02:48:29;;;;;;;11.20;4.17;;;9.30;1.00;;;;;;5065478;28;20515;-75
2022/11/03 02:50:54;;;;;;;8.90;3.90;;;9.30;1.00;;;;;;5068418;28;20426;-74
2022/11/03 02:53:20;;;;;;;11.70;3.80;;;9.40;1.00;;;;;;5064713;28;20476;-75
2022/11/03 02:55:51;;;;;;;14.93;3.70;;;9.40;1.00;;;;;;5068282;28;20187;-75
2022/11/03 02:58:36;;;;;;;6.53;3.27;;;9.40;1.00;;;;;;5066416;28;20832;-75
2022/11/03 03:01:23;;;;;;;9.03;3.80;;;9.40;1.00;;;;;;5066611;28;20657;-74
2022/11/03 03:03:58;;;;;;;9.80;3.60;;;9.40;1.00;;;;;;5067201;28;20520;-75
2022/11/03 03:06:41;;;;;;;8.67;3.83;;;9.40;1.00;;;;;;5065254;28;20429;-74
2022/11/03 03:09:14;;;;;;;7.30;3.53;;;9.40;1.00;;;;;;5061095;28;20414;-75
2022/11/03 03:11:42;;;;;;;6.40;3.20;;;9.40;1.00;;;;;;5064065;28;20906;-74
2022/11/03 03:14:14;;;;;;;14.70;3.50;;;9.40;1.00;;;;;;5076166;28;20919;-75
2022/11/03 03:17:07;;;;;;;7.77;3.90;;;9.30;1.00;;;;;;5062584;28;20441;-75
2022/11/03 03:19:59;;;;;;;10.13;3.37;;;9.30;1.00;;;;;;5060077;28;20431;-74
2022/11/03 03:22:38;;;;;;;12.83;3.70;;;9.20;1.00;;;;;;5058962;28;20534;-74
2022/11/03 03:25:12;;;;;;;14.07;4.50;;;9.20;1.00;;;;;;5061968;28;20435;-75
2022/11/03 03:27:44;;;;;;;11.93;3.50;;;9.20;1.00;;;;;;5070130;28;20433;-74
2022/11/03 03:30:11;;;;;;;10.73;3.90;;;9.20;1.00;;;;;;5071137;28;20419;-75
2022/11/03 03:32:39;;;;;;;7.70;4.10;;;9.20;1.00;;;;;;5056863;28;20454;-74
2022/11/03 03:35:08;;;;;;;7.70;3.70;;;9.20;1.00;;;;;;5087998;28;20827;-75
2022/11/03 03:37:38;;;;;;;9.63;4.47;;;9.10;1.00;;;;;;5064289;28;20819;-75
2022/11/03 03:40:09;;;;;;;10.20;3.60;;;9.10;1.00;;;;;;5054029;28;20407;-75
2022/11/03 03:42:37;;;;;;;9.47;4.10;;;9.10;1.00;;;;;;5067438;28;20937;-75
2022/11/03 03:45:05;;;;;;;9.90;3.93;;;9.20;1.00;;;;;;5071938;28;20420;-75
2022/11/03 03:47:33;;;;;;;7.57;3.67;;;9.20;1.00;;;;;;5064343;28;20438;-75
2022/11/03 03:50:00;;;;;;;9.53;3.77;;;9.20;1.00;;;;;;5072593;28;20431;-75
2022/11/03 03:52:26;;;;;;;8.00;3.30;;;9.30;1.00;;;;;;5064469;28;20454;-75
2022/11/03 03:54:53;;;;;;;10.40;3.87;;;9.30;1.00;;;;;;5071342;28;20544;-75
2022/11/03 03:57:21;;;;;;;10.37;4.07;;;9.40;1.00;;;;;;5068037;28;20781;-75
2022/11/03 03:59:47;;;;;;;11.00;3.97;;;9.40;1.00;;;;;;5069126;28;20406;-75
2022/11/03 04:02:13;;;;;;;10.80;4.27;;;9.50;1.00;;;;;;5065530;28;20465;-75
2022/11/03 04:04:38;;;;;;;7.20;3.60;;;9.60;1.00;;;;;;5071614;28;20171;-75
2022/11/03 04:09:48;;;;;;;9.30;4.17;;;9.60;1.00;;;;;;5070632;28;20321;-75
2022/11/03 04:23:12;;;;;;;14.90;4.00;;;9.70;1.00;;;;;;5060778;28;21005;-74
2022/11/03 04:25:38;;;;;;;13.70;4.43;;;9.70;1.00;;;;;;5068883;28;20415;-74
2022/11/03 04:28:12;;;;;;;10.33;3.63;;;9.70;1.00;;;;;;5069577;28;20184;-74
2022/11/03 04:30:38;;;;;;;10.57;4.30;;;9.60;1.00;;;;;;5066206;28;20268;-75
2022/11/03 04:33:12;;;;;;;9.13;4.90;;;9.60;1.00;;;;;;5067112;28;21078;-74
2022/11/03 04:35:38;;;;;;;10.67;4.00;;;9.60;1.00;;;;;;5067021;28;20441;-74
2022/11/03 04:38:18;;;;;;;13.13;4.30;;;9.60;1.00;;;;;;5062893;28;20805;-74
2022/11/03 04:40:51;;;;;;;11.23;4.40;;;9.60;1.00;;;;;;5066413;28;20230;-74
2022/11/03 04:43:18;;;;;;;9.47;4.20;;;9.60;1.00;;;;;;5069998;28;20782;-74
2022/11/03 04:45:46;;;;;;;10.50;3.70;;;9.60;1.00;;;;;;5065543;28;20462;-74
2022/11/03 04:48:22;;;;;;;12.10;4.67;;;9.60;1.00;;;;;;5070391;28;20418;-75
2022/11/03 04:50:51;;;;;;;9.10;3.70;;;9.60;1.00;;;;;;5067685;28;20533;-75
2022/11/03 04:53:18;;;;;;;11.10;4.27;;;9.60;1.00;;;;;;5066182;28;20454;-75
2022/11/03 04:55:45;;;;;;;9.30;4.60;;;9.60;1.00;;;;;;5059679;28;20878;-75
2022/11/03 04:58:17;;;;;;;10.47;3.93;;;9.60;1.00;;;;;;5067200;28;20470;-75
2022/11/03 05:00:43;;;;;;;9.50;3.80;;;9.60;1.00;;;;;;5067681;28;20407;-75
2022/11/03 05:03:21;;;;;;;9.20;3.97;;;9.60;1.00;;;;;;5061368;28;20948;-75
2022/11/03 05:05:46;;;;;;;8.70;4.07;;;9.60;1.00;;;;;;5069094;28;20196;-75
2022/11/03 05:08:12;;;;;;;11.13;4.43;;;9.60;1.00;;;;;;5062226;28;20473;-75
2022/11/03 05:10:38;;;;;;;7.80;4.00;;;9.60;1.00;;;;;;5070225;28;20635;-75
2022/11/03 05:13:34;;;;;;;8.10;3.83;;;9.60;1.00;;;;;;5076118;28;20222;-75
2022/11/03 05:16:03;;;;;;;11.93;4.73;;;9.60;1.00;;;;;;5063450;28;20242;-75
2022/11/03 05:18:32;;;;;;;10.20;4.40;;;9.60;1.00;;;;;;5058666;28;20455;-75
2022/11/03 05:21:11;;;;;;;8.13;4.23;;;9.60;1.00;;;;;;5069379;28;20406;-74
2022/11/03 05:23:39;;;;;;;13.80;4.67;;;9.60;1.00;;;;;;5063252;28;20854;-75
2022/11/03 05:26:11;;;;;;;8.00;4.17;;;9.60;1.00;;;;;;5065771;28;20446;-75
2022/11/03 05:28:41;;;;;;;6.63;3.87;;;9.60;1.00;;;;;;5069230;28;20493;-75
2022/11/03 05:31:19;;;;;;;10.07;4.40;;;9.60;1.00;;;;;;5061366;28;20417;-75
2022/11/03 05:33:46;;;;;;;6.50;4.10;;;9.60;1.00;;;;;;5063220;28;20636;-75
2022/11/03 05:36:15;;;;;;;11.17;3.90;;;9.60;1.00;;;;;;5065755;28;20481;-75
2022/11/03 05:38:41;;;;;;;9.00;4.50;;;9.70;1.00;;;;;;5068201;28;20557;-75
2022/11/03 05:41:33;;;;;;;7.60;4.00;;;9.70;1.00;;;;;;5067348;28;20422;-75
2022/11/03 05:44:02;;;;;;;9.30;3.97;;;9.70;1.00;;;;;;5061525;28;20465;-75
2022/11/03 05:46:33;;;;;;;9.70;4.27;;;9.70;1.00;;;;;;5065594;28;20487;-75
2022/11/03 05:49:02;;;;;;;10.80;4.50;;;9.70;1.00;;;;;;5067917;28;20435;-75
2022/11/03 05:51:33;;;;;;;7.27;4.30;;;9.70;1.00;;;;;;5067275;28;20457;-75
2022/11/03 05:54:02;;;;;;;13.63;4.73;;;9.70;1.00;;;;;;5069006;28;20940;-75
2022/11/03 05:56:30;;;;;;;9.00;4.40;;;9.70;1.00;;;;;;5066609;28;20599;-75
2022/11/03 05:58:56;;;;;;;8.87;4.80;;;9.70;1.00;;;;;;5059820;28;20470;-75
2022/11/03 06:01:21;;;;;;;10.27;4.47;;;9.70;1.00;;;;;;5066252;28;20432;-75
2022/11/03 06:03:47;;;;;;;12.93;4.70;;;9.70;1.00;;;;;;5068864;28;20246;-75
2022/11/03 06:06:34;;;;;;;6.87;4.00;;;9.70;1.00;;;;;;5065148;28;20208;-75
2022/11/03 06:09:12;;;;;;;12.40;6.67;;;9.70;1.00;;;;;;5060972;28;20752;-75
2022/11/03 06:11:38;;;;;;;13.53;7.43;;;9.80;1.00;;;;;;5058004;28;20428;-75
2022/11/03 06:14:18;;;;;;;12.47;5.90;;;9.70;1.00;;;;;;5069114;28;20475;-75
2022/11/03 06:16:48;;;;;;;11.13;5.40;;;9.80;1.00;;;;;;5067089;28;20421;-75
2022/11/03 06:19:18;;;;;;;10.30;4.93;;;9.80;1.00;;;;;;5062634;28;20477;-75
2022/11/03 06:21:45;;;;;;;14.07;5.17;;;9.80;1.00;;;;;;5058824;28;20502;-75
2022/11/03 06:24:12;;;;;;;10.10;4.63;;;9.90;1.00;;;;;;5069386;28;20468;-75
2022/11/03 06:26:39;;;;;;;10.37;4.67;;;9.90;1.00;;;;;;5066250;28;20997;-76
2022/11/03 06:29:04;;;;;;;8.80;4.47;;;10.00;1.00;;;;;;5067621;28;20423;-75
2022/11/03 06:31:32;;;;;;;11.43;5.47;;;10.00;1.00;;;;;;5055863;28;21003;-73
2022/11/03 06:33:58;;;;;;;16.33;7.00;;;10.10;1.00;;;;;;5063527;28;20445;-81
2022/11/03 06:36:28;;;;;;;13.60;8.33;;;10.20;1.00;;;;;;5071163;28;20224;-78
2022/11/03 06:39:01;;;;;;;12.93;5.37;;;10.40;1.00;;;;;;5057619;28;20203;-77
2022/11/03 06:41:30;;;;;;;9.67;4.67;;;10.60;1.00;;;;;;5060172;28;20498;-77
2022/11/03 06:44:00;;;;;;;12.07;5.43;;;10.80;1.00;;;;;;5071275;28;20956;-78
2022/11/03 06:46:26;;;;;;;11.57;5.60;;;10.90;1.00;;;;;;5059146;28;20434;-78
2022/11/03 06:48:53;;;;;;;16.53;5.53;;;10.90;1.00;;;;;;5055409;28;20845;-78
2022/11/03 06:51:26;;;;;;;10.13;4.70;;;11.00;1.00;;;;;;5061563;28;20491;-78
2022/11/03 06:53:53;;;;;;;14.67;5.10;;;11.10;1.00;;;;;;5063747;28;20466;-78
2022/11/03 06:56:23;;;;;;;6.67;4.37;;;11.10;1.00;;;;;;5075074;28;20511;-78
2022/11/03 06:58:53;;;;;;;9.37;5.37;;;11.10;1.00;;;;;;5067123;28;20464;-78
2022/11/03 07:01:22;;;;;;;9.00;4.37;;;11.20;1.00;;;;;;5074907;28;20766;-80
2022/11/03 07:04:00;;;;;;;9.57;4.70;;;11.20;1.00;;;;;;5066072;28;20534;-79
2022/11/03 07:06:30;;;;;;;11.60;5.27;;;11.30;1.00;;;;;;5066052;28;20427;-77
2022/11/03 07:09:00;;;;;;;11.13;4.90;;;11.30;1.00;;;;;;5060281;28;20525;-74
2022/11/03 07:11:29;;;;;;;8.00;4.73;;;11.30;1.00;;;;;;5066295;28;20451;-74
2022/11/03 07:14:09;;;;;;;6.30;4.60;;;11.30;1.00;;;;;;5059950;28;20520;-74
2022/11/03 07:16:44;;;;;;;8.70;4.20;;;11.40;1.00;;;;;;5060422;28;20459;-73
2022/11/03 07:19:23;;;;;;;13.83;4.77;;;11.50;1.00;;;;;;5064365;28;20581;-74
2022/11/03 07:21:55;;;;;;;7.93;4.07;;;11.60;1.00;;;;;;5067148;28;20442;-74
2022/11/03 07:24:32;;;;;;;7.60;3.73;;;11.70;1.00;;;;;;5068996;28;20441;-74
2022/11/03 07:27:20;;;;;;;7.00;3.87;;;11.70;1.00;;;;;;5055346;28;20485;-74
2022/11/03 07:29:48;;;;;;;10.77;4.03;;;11.80;1.00;;;;;;5068249;28;20419;-74
2022/11/03 07:32:22;;;;;;;8.37;3.93;;;11.90;1.00;;;;;;5060195;28;20452;-74
2022/11/03 07:34:51;;;;;;;10.87;4.43;;;11.90;1.00;;;;;;5065497;28;20921;-74
2022/11/03 07:37:23;;;;;;;7.73;4.60;;;12.00;1.00;;;;;;5067334;28;20573;-74
2022/11/03 07:39:50;;;;;;;12.30;5.17;;;12.00;1.00;;;;;;5066898;28;20805;-74
2022/11/03 07:42:23;;;;;;;9.03;4.53;;;12.10;1.00;;;;;;5070643;28;20932;-74
2022/11/03 07:44:49;;;;;;;12.40;4.20;;;12.00;1.00;;;;;;5070394;28;20777;-74
2022/11/03 07:47:25;;;;;;;5.80;3.70;;;12.10;1.00;;;;;;5067647;28;20430;-74
2022/11/03 07:49:51;;;;;;;9.93;4.43;;;12.10;1.00;;;;;;5064934;28;20329;-74
2022/11/03 07:52:21;;;;;;;8.67;4.43;;;12.20;1.00;;;;;;5070194;28;20822;-74
2022/11/03 07:54:48;;;;;;;7.30;4.00;;;12.30;1.00;;;;;;5058583;28;20196;-74
2022/11/03 07:57:30;;;;;;;14.07;4.60;;;12.30;1.00;;;;;;5069738;28;20928;-75
2022/11/03 08:00:00;;;;;;;11.30;3.73;;;12.40;1.00;;;;;;5070978;28;20423;-74
2022/11/03 08:02:40;;;;;;;10.07;4.20;;;12.50;1.00;;;;;;5065136;28;20442;-75
2022/11/03 08:05:07;;;;;;;7.77;3.80;;;12.60;1.00;;;;;;5065346;28;20457;-74
2022/11/03 08:07:32;;;;;;;8.53;4.77;;;12.60;1.00;;;;;;5058608;28;21068;-74
2022/11/03 08:09:58;;;;;;;9.40;4.40;;;12.70;1.00;;;;;;5059107;28;20434;-74
2022/11/03 08:12:24;;;;;;;9.97;4.37;;;12.80;1.00;;;;;;5066738;28;20224;-74
2022/11/03 08:14:49;;;;;;;7.97;3.97;;;12.80;1.00;;;;;;5060461;28;20242;-74
2022/11/03 08:17:15;;;;;;;9.80;4.10;;;12.90;1.00;;;;;;5067663;28;20204;-74
2022/11/03 08:19:41;;;;;;;9.83;4.00;;;13.00;1.00;;;;;;5066586;28;20246;-74
2022/11/03 08:22:07;;;;;;;7.37;4.23;;;13.10;1.00;;;;;;5064757;28;20693;-74
2022/11/03 08:24:32;;;;;;;8.43;3.70;;;13.20;1.00;;;;;;5058706;28;20239;-74
2022/11/03 08:26:58;;;;;;;7.77;4.47;;;13.20;1.00;;;;;;5063572;28;20243;-74
2022/11/03 08:29:26;;;;;;;11.27;4.10;;;13.30;1.00;;;;;;5064859;28;20665;-74
2022/11/03 08:31:52;;;;;;;6.77;4.20;;;13.30;1.00;;;;;;5061620;28;20183;-74
2022/11/03 08:34:17;;;;;;;10.70;4.30;;;13.40;1.00;;;;;;5060008;28;20908;-74
2022/11/03 08:36:43;;;;;;;15.80;4.33;;;13.20;1.00;;;;;;5059044;28;20435;-74
2022/11/03 08:39:09;;;;;;;6.50;3.93;;;13.10;1.00;;;;;;5060921;28;20205;-74
2022/11/03 08:41:34;;;;;;;7.60;4.10;;;13.10;1.00;;;;;;5066903;28;20179;-74
2022/11/03 08:44:00;;;;;;;9.50;3.80;;;13.10;1.00;;;;;;5064874;28;20184;-74
2022/11/03 08:46:26;;;;;;;6.97;3.80;;;13.20;1.00;;;;;;5063492;28;20174;-74
2022/11/03 08:48:51;;;;;;;12.53;4.97;;;13.40;1.00;;;;;;5068240;28;20180;-74
2022/11/03 08:51:17;;;;;;;7.10;3.53;;;13.80;1.00;;;;;;5071089;28;20747;-73
2022/11/03 08:53:42;;;;;;;7.20;3.90;;;14.70;1.00;;;;;;5071783;28;20583;-74
2022/11/03 08:56:08;;;;;;;9.37;3.30;;;16.50;1.00;;;;;;5059338;28;20180;-74
2022/11/03 08:58:34;;;;;;;14.40;4.83;;;18.30;1.00;;;;;;5056488;28;20212;-74
2022/11/03 09:00:59;;;;;;;7.90;4.20;;;19.60;1.00;;;;;;5067751;28;20173;-74
2022/11/03 09:03:25;;;;;;;8.17;4.23;;;19.60;1.00;;;;;;5068687;28;20192;-74
2022/11/03 09:05:50;;;;;;;5.70;4.33;;;19.10;1.00;;;;;;5063684;28;20174;-74
2022/11/03 09:08:16;;;;;;;10.03;4.90;;;19.00;1.00;;;;;;5064276;28;20271;-74
2022/11/03 09:10:41;;;;;;;10.13;4.30;;;19.00;1.00;;;;;;5068138;28;20215;-74
2022/11/03 09:13:08;;;;;;;10.30;5.00;;;19.00;1.00;;;;;;5082073;28;20562;-74
2022/11/03 09:15:33;;;;;;;14.13;5.40;;;18.70;1.00;;;;;;5067163;28;20211;-74
2022/11/03 09:17:59;;;;;;;11.70;5.10;;;18.50;1.00;;;;;;5069463;28;20501;-74
2022/11/03 09:20:24;;;;;;;10.20;5.13;;;18.20;1.00;;;;;;5058335;28;20884;-74
2022/11/03 09:22:51;;;;;;;9.73;4.70;;;18.10;1.00;;;;;;5089270;28;20240;-76
2022/11/03 09:25:17;;;;;;;7.17;4.73;;;18.20;1.00;;;;;;5067128;28;20295;-75
2022/11/03 09:27:42;;;;;;;12.67;5.07;;;18.00;1.00;;;;;;5063393;28;20517;-74
2022/11/03 09:30:08;;;;;;;9.57;5.23;;;17.70;1.00;;;;;;5073904;28;20180;-74
2022/11/03 09:32:34;;;;;;;10.60;4.37;;;17.30;1.00;;;;;;5071423;28;20187;-74
2022/11/03 09:34:59;;;;;;;8.80;4.63;;;17.20;1.00;;;;;;5065737;28;20470;-74
2022/11/03 09:37:25;;;;;;;8.60;4.27;;;16.50;1.00;;;;;;5065629;28;20261;-75
2022/11/03 09:39:50;;;;;;;7.80;4.23;;;16.10;1.00;;;;;;5060014;28;20177;-74
2022/11/03 09:42:17;;;;;;;12.13;4.50;;;15.90;1.00;;;;;;5062855;28;20576;-75
2022/11/03 09:44:45;;;;;;;7.37;4.00;;;15.70;1.00;;;;;;5064766;28;20295;-74
2022/11/03 09:47:21;;;;;;;12.23;4.10;;;15.50;1.00;;;;;;5065230;28;20810;-74
2022/11/03 09:49:47;;;;;;;7.20;4.03;;;15.40;1.00;;;;;;5067723;28;20509;-74
2022/11/03 09:52:16;;;;;;;6.73;4.37;;;15.30;1.00;;;;;;5058877;28;20554;-74
2022/11/03 09:54:42;;;;;;;8.17;4.07;;;15.50;1.00;;;;;;5067466;28;20176;-74
2022/11/03 09:57:15;;;;;;;10.67;4.40;;;15.60;1.00;;;;;;5064613;28;20808;-75
2022/11/03 09:59:44;;;;;;;8.73;4.00;;;15.40;1.00;;;;;;5077608;28;20251;-74
2022/11/03 10:02:19;;;;;;;7.90;3.87;;;15.40;1.00;;;;;;5060599;28;20489;-74
2022/11/03 10:04:45;;;;;;;7.63;3.80;;;15.40;1.00;;;;;;5060196;28;20746;-74
2022/11/03 10:07:10;;;;;;;6.67;3.70;;;15.50;1.00;;;;;;5063477;28;20429;-75
2022/11/03 10:09:37;;;;;;;6.03;3.77;;;15.90;1.00;;;;;;5065447;28;20177;-75
2022/11/03 10:12:02;;;;;;;6.43;4.20;;;16.10;1.00;;;;;;5063011;28;20578;-74
2022/11/03 10:14:28;;;;;;;9.23;4.90;;;16.10;1.00;;;;;;5076185;28;20425;-74
2022/11/03 10:17:01;;;;;;;8.80;5.47;;;15.90;1.00;;;;;;5068701;28;20184;-75
2022/11/03 10:19:26;;;;;;;10.97;4.30;;;15.90;1.00;;;;;;5060475;28;20227;-74
2022/11/03 10:21:52;;;;;;;17.00;6.00;;;16.00;1.00;;;;;;5067319;28;20427;-74
2022/11/03 10:24:18;;;;;;;10.23;5.03;;;16.30;1.00;;;;;;5065951;28;20164;-75
2022/11/03 10:26:45;;;;;;;6.83;4.17;;;16.50;1.00;;;;;;5060933;28;20267;-75
2022/11/03 10:29:18;;;;;;;6.03;3.93;;;16.90;1.00;;;;;;5067170;28;20557;-75
2022/11/03 10:31:48;;;;;;;10.33;4.60;;;17.20;1.00;;;;;;5058813;28;20430;-75
2022/11/03 10:34:36;;;;;;;13.47;5.20;;;17.50;1.00;;;;;;5071572;28;20459;-75
2022/11/03 10:37:22;;;;;;;12.43;4.93;;;17.60;1.00;;;;;;5067103;28;20942;-74
2022/11/03 10:39:49;;;;;;;8.33;5.00;;;17.60;1.00;;;;;;5072562;28;20516;-75
2022/11/03 10:42:21;;;;;;;10.33;4.57;;;17.10;1.00;;;;;;5067760;28;20450;-74
2022/11/03 10:44:48;;;;;;;12.33;4.50;;;16.80;1.00;;;;;;5066753;28;20427;-74
2022/11/03 10:47:30;;;;;;;7.50;4.67;;;16.60;1.00;;;;;;5071001;28;20422;-74
2022/11/03 10:49:56;;;;;;;10.53;4.80;;;16.30;1.00;;;;;;5068913;28;20422;-75
2022/11/03 10:52:24;;;;;;;8.83;4.43;;;16.30;1.00;;;;;;5077797;28;20809;-74
2022/11/03 10:54:52;;;;;;;8.17;4.30;;;16.10;1.00;;;;;;5082478;28;20537;-74
2022/11/03 10:57:18;;;;;;;9.87;4.53;;;15.80;1.00;;;;;;5064234;28;20458;-73
2022/11/03 10:59:46;;;;;;;18.83;4.00;;;15.80;1.00;;;;;;5070246;28;20418;-74
2022/11/03 11:02:17;;;;;;;8.53;4.10;;;15.80;1.00;;;;;;5059346;28;20463;-75
2022/11/03 11:04:42;;;;;;;5.90;4.10;;;15.70;1.00;;;;;;5069716;28;20503;-74
2022/11/03 11:07:18;;;;;;;12.13;4.63;;;15.60;1.00;;;;;;5061611;28;20916;-75
2022/11/03 11:09:44;;;;;;;9.83;4.20;;;15.40;1.00;;;;;;5070838;28;20176;-74
2022/11/03 11:12:23;;;;;;;8.10;3.67;;;15.30;1.00;;;;;;5074764;28;20433;-76
2022/11/03 11:14:55;;;;;;;7.20;4.17;;;15.10;1.00;;;;;;5081496;28;20343;-75
2022/11/03 11:17:41;;;;;;;7.10;4.30;;;15.10;1.00;;;;;;5067942;28;20426;-75
2022/11/03 11:20:20;;;;;;;13.97;5.17;;;15.00;1.00;;;;;;5072659;28;20407;-75
2022/11/03 11:22:47;;;;;;;9.60;4.73;;;15.00;1.00;;;;;;5071693;28;20442;-75
2022/11/03 11:25:13;;;;;;;9.50;4.77;;;14.90;1.00;;;;;;5068089;28;20500;-75
2022/11/03 11:27:38;;;;;;;8.47;4.93;;;14.90;1.00;;;;;;5069380;28;20466;-74
2022/11/03 11:30:30;;;;;;;7.67;4.33;;;15.00;1.00;;;;;;5081648;28;20178;-74
2022/11/03 11:32:58;;;;;;;7.80;4.20;;;15.00;1.00;;;;;;5053159;28;20670;-74
2022/11/03 11:35:25;;;;;;;11.93;4.67;;;15.00;1.00;;;;;;5070470;28;20410;-75
2022/11/03 11:37:50;;;;;;;8.53;4.70;;;14.90;1.00;;;;;;5066184;28;20470;-75
2022/11/03 11:40:22;;;;;;;16.20;8.20;;;14.80;1.00;;;;;;5072516;28;20753;-75
2022/11/03 11:43:04;;;;;;;11.83;5.63;;;16.90;1.00;;;;;;5065220;28;20279;-76
2022/11/03 11:46:07;;;;;;;13.27;6.50;;;14.90;1.00;;;;;;5068121;28;20473;-75
2022/11/03 11:48:33;;;;;;;12.47;6.47;;;15.00;1.00;;;;;;5066661;28;20422;-75
2022/11/03 11:51:00;;;;;;;6.60;4.40;;;15.00;1.00;;;;;;5072213;28;20559;-75
2022/11/03 11:53:26;;;;;;;12.63;5.13;;;15.00;1.00;;;;;;5076451;28;21110;-75
2022/11/03 11:56:00;;;;;;;11.20;5.57;;;15.00;1.00;;;;;;5064797;28;20450;-75
2022/11/03 11:58:41;;;;;;;8.40;4.90;;;14.90;1.00;;;;;;5071775;28;20647;-75
2022/11/03 12:01:31;;;;;;;9.13;4.23;;;14.80;1.00;;;;;;5063450;28;20435;-76
2022/11/03 12:04:16;;;;;;;8.40;4.60;;;14.70;1.00;;;;;;5078310;28;20443;-75
2022/11/03 12:06:43;;;;;;;12.53;5.20;;;14.60;1.00;;;;;;5056174;28;20435;-75
2022/11/03 12:09:16;;;;;;;6.73;4.00;;;14.60;1.00;;;;;;5064687;28;20433;-77
2022/11/03 12:11:50;;;;;;;9.77;4.60;;;14.70;1.00;;;;;;5076535;28;20920;-76
2022/11/03 12:14:31;;;;;;;8.30;4.57;;;14.70;1.00;;;;;;5066565;28;20476;-76
2022/11/03 12:16:58;;;;;;;9.33;4.57;;;14.70;1.00;;;;;;5064747;28;20445;-75
2022/11/03 12:19:34;;;;;;;6.43;4.07;;;14.70;1.00;;;;;;5069673;28;20545;-76
2022/11/03 12:22:02;;;;;;;9.23;4.60;;;14.70;1.00;;;;;;5069301;28;20955;-76
2022/11/03 12:24:31;;;;;;;7.20;3.60;;;14.70;1.00;;;;;;5073857;28;20900;-76
2022/11/03 12:26:57;;;;;;;7.73;4.17;;;14.70;1.00;;;;;;5071277;28;20434;-76
2022/11/03 12:29:23;;;;;;;8.80;4.40;;;14.80;1.00;;;;;;5071656;28;20935;-76
2022/11/03 12:31:49;;;;;;;8.07;3.90;;;14.90;1.00;;;;;;5072908;28;20446;-75
2022/11/03 12:34:15;;;;;;;11.53;4.43;;;15.00;1.00;;;;;;5063388;28;20502;-76
2022/11/03 12:36:42;;;;;;;5.20;3.50;;;15.10;1.00;;;;;;5060738;28;20185;-76
2022/11/03 12:39:07;;;;;;;20.33;5.70;;;15.30;1.00;;;;;;5070612;28;20462;-76
2022/11/03 12:41:32;;;;;;;12.50;4.70;;;15.30;1.00;;;;;;5075235;28;20430;-76
2022/11/03 12:43:58;;;;;;;7.57;3.77;;;15.40;1.00;;;;;;5073322;28;20596;-76
2022/11/03 12:46:24;;;;;;;6.43;4.00;;;15.60;1.00;;;;;;5068105;28;20177;-76
2022/11/03 12:48:49;;;;;;;7.63;4.50;;;15.60;1.00;;;;;;5070320;28;20208;-75
2022/11/03 12:51:17;;;;;;;6.10;4.30;;;15.70;1.00;;;;;;5066208;28;20612;-73
2022/11/03 12:53:43;;;;;;;8.47;3.50;;;15.70;1.00;;;;;;5069203;28;20204;-73
2022/11/03 12:56:09;;;;;;;10.83;3.93;;;15.70;1.00;;;;;;5056930;28;20447;-73
2022/11/03 12:58:35;;;;;;;6.93;3.83;;;15.60;1.00;;;;;;5055020;28;20557;-73
2022/11/03 13:01:01;;;;;;;15.03;4.40;;;15.60;1.00;;;;;;5070993;28;20549;-73
2022/11/03 13:03:28;;;;;;;7.13;4.00;;;15.50;1.00;;;;;;5063125;28;20220;-73
2022/11/03 13:05:54;;;;;;;10.23;3.50;;;15.50;1.00;;;;;;5070695;28;20836;-74
2022/11/03 13:08:20;;;;;;;15.20;4.30;;;15.40;1.00;;;;;;5065420;28;20850;-74
2022/11/03 13:10:45;;;;;;;13.40;5.73;;;15.30;1.00;;;;;;5068414;28;20478;-73
2022/11/03 13:13:11;;;;;;;8.50;4.93;;;15.30;1.00;;;;;;5076660;28;20200;-75
2022/11/03 13:15:36;;;;;;;8.77;4.10;;;15.30;1.00;;;;;;5063812;28;20220;-75
2022/11/03 13:18:04;;;;;;;7.20;3.60;;;15.40;1.00;;;;;;5066881;28;20238;-76
2022/11/03 13:20:30;;;;;;;4.90;3.50;;;15.40;1.00;;;;;;5051166;28;20543;-76
2022/11/03 13:22:55;;;;;;;16.50;6.87;;;15.40;1.00;;;;;;5067613;28;20430;-76
2022/11/03 13:25:23;;;;;;;15.03;5.10;;;15.40;1.00;;;;;;5059817;28;20226;-76